createdAt,value
2023-05-16T00:02:07.881Z,99239.53
2023-05-16T00:04:54.803Z,99266.38
2023-05-16T00:07:44.160Z,99258.47
2023-05-16T00:10:30.473Z,99249.53
2023-05-16T00:13:22.400Z,99262.47
2023-05-16T00:16:09.188Z,99263.19
2023-05-16T00:18:57.868Z,99245.78
2023-05-16T00:21:44.986Z,99263.38
2023-05-16T00:24:31.476Z,99267.00
2023-05-16T00:27:17.687Z,99257.25
2023-05-16T00:30:04.860Z,99226.66
2023-05-16T00:32:51.741Z,99233.00
2023-05-16T00:35:38.768Z,99187.44
2023-05-16T00:38:25.521Z,99203.41
2023-05-16T00:41:12.284Z,99243.28
2023-05-16T00:43:58.701Z,99260.88
2023-05-16T00:46:45.642Z,99199.34
2023-05-16T00:49:32.334Z,99244.09
2023-05-16T00:52:19.536Z,99256.16
2023-05-16T00:55:06.359Z,99269.31
2023-05-16T00:57:54.239Z,99251.63
2023-05-16T01:00:40.783Z,99252.78
2023-05-16T01:03:28.239Z,99269.22
2023-05-16T01:06:14.718Z,99259.13
2023-05-16T01:09:01.215Z,99261.88
2023-05-16T01:12:07.449Z,99278.38
2023-05-16T01:15:14.192Z,99280.94
2023-05-16T01:18:09.803Z,99281.84
2023-05-16T01:21:04.179Z,99285.31
2023-05-16T01:24:10.042Z,99292.09
2023-05-16T01:26:56.648Z,99298.66
2023-05-16T01:29:42.805Z,99265.53
2023-05-16T01:32:30.161Z,99278.13
2023-05-16T01:35:17.659Z,99261.88
2023-05-16T01:38:27.761Z,99307.03
2023-05-16T01:41:35.786Z,99294.41
2023-05-16T01:44:31.225Z,99253.88
2023-05-16T01:47:23.551Z,99310.22
2023-05-16T01:50:21.717Z,99322.06
2023-05-16T01:53:11.495Z,99323.13
2023-05-16T01:56:00.842Z,99302.22
2023-05-16T01:58:50.909Z,99306.22
2023-05-16T02:01:37.755Z,99307.56
2023-05-16T02:04:24.937Z,99338.50
2023-05-16T02:07:12.929Z,99332.81
2023-05-16T02:09:59.793Z,99352.28
2023-05-16T02:12:46.910Z,99327.81
2023-05-16T02:15:35.092Z,99333.41
2023-05-16T02:18:23.786Z,99342.84
2023-05-16T02:21:10.795Z,99348.06
2023-05-16T02:23:57.583Z,99342.66
2023-05-16T02:26:46.157Z,99346.59
2023-05-16T02:29:33.520Z,99343.47
2023-05-16T02:32:19.710Z,99360.25
2023-05-16T02:35:07.436Z,99355.13
2023-05-16T02:37:56.224Z,99361.69
2023-05-16T02:40:44.864Z,99378.50
2023-05-16T02:43:31.622Z,99368.97
2023-05-16T02:46:44.929Z,99386.59
2023-05-16T02:49:33.983Z,99400.19
2023-05-16T02:52:21.706Z,99394.41
2023-05-16T02:57:58.172Z,99416.28
2023-05-16T03:00:44.323Z,99411.22
2023-05-16T03:03:31.496Z,99399.75
2023-05-16T03:06:20.309Z,99389.34
2023-05-16T03:09:07.883Z,99419.66
2023-05-16T03:11:54.413Z,99408.81
2023-05-16T03:14:41.096Z,99430.88
2023-05-16T03:17:29.370Z,99412.38
2023-05-16T03:20:17.451Z,99442.78
2023-05-16T03:23:03.989Z,99436.28
2023-05-16T03:25:50.897Z,99400.34
2023-05-16T03:28:40.683Z,99374.03
2023-05-16T03:31:27.536Z,99442.88
2023-05-16T03:34:13.965Z,99384.41
2023-05-16T03:37:01.453Z,99424.38
2023-05-16T03:39:47.635Z,99449.53
2023-05-16T03:42:34.809Z,99452.03
2023-05-16T03:45:21.424Z,99450.09
2023-05-16T03:48:10.110Z,99441.28
2023-05-16T03:50:56.628Z,99456.31
2023-05-16T03:53:43.583Z,99463.25
2023-05-16T03:56:29.663Z,99463.94
2023-05-16T03:59:17.029Z,99485.63
2023-05-16T04:02:03.292Z,99495.50
2023-05-16T04:04:52.684Z,99506.34
2023-05-16T04:07:39.232Z,99449.38
2023-05-16T04:10:25.812Z,99487.00
2023-05-16T04:13:12.574Z,99460.59
2023-05-16T04:15:59.437Z,99521.13
2023-05-16T04:18:48.025Z,99462.72
2023-05-16T04:21:36.019Z,99521.47
2023-05-16T04:24:26.534Z,99523.06
2023-05-16T04:27:15.526Z,99540.69
2023-05-16T04:30:02.364Z,99522.72
2023-05-16T04:32:49.197Z,99545.22
2023-05-16T04:35:35.786Z,99537.09
2023-05-16T04:38:22.883Z,99523.28
2023-05-16T04:41:09.594Z,99512.88
2023-05-16T04:43:56.968Z,99570.13
2023-05-16T04:46:43.860Z,99565.50
2023-05-16T04:49:33.163Z,99575.25
2023-05-16T04:52:19.502Z,99585.94
2023-05-16T04:55:07.150Z,99596.06
2023-05-16T04:57:55.955Z,99568.06
2023-05-16T05:01:01.835Z,99606.84
2023-05-16T05:03:48.583Z,99599.75
2023-05-16T05:06:35.318Z,99599.94
2023-05-16T05:09:22.220Z,99616.34
2023-05-16T05:12:09.475Z,99619.34
2023-05-16T05:14:55.689Z,99627.94
2023-05-16T05:17:42.952Z,99618.72
2023-05-16T05:20:29.649Z,99626.84
2023-05-16T05:23:16.921Z,99576.28
2023-05-16T05:26:05.671Z,99577.09
2023-05-16T05:29:04.486Z,99637.72
2023-05-16T05:31:52.384Z,99641.94
2023-05-16T05:34:42.142Z,99642.91
2023-05-16T05:37:28.762Z,99656.47
2023-05-16T05:40:16.678Z,99657.63
2023-05-16T05:43:02.924Z,99665.66
2023-05-16T05:45:50.259Z,99653.63
2023-05-16T05:48:36.647Z,99647.75
2023-05-16T05:51:23.907Z,99665.38
2023-05-16T05:54:10.592Z,99664.75
2023-05-16T05:56:58.588Z,99665.22
2023-05-16T05:59:45.085Z,99641.84
2023-05-16T06:02:31.965Z,99604.28
2023-05-16T06:05:18.735Z,99658.53
2023-05-16T06:08:05.703Z,99667.59
2023-05-16T06:10:54.374Z,99623.94
2023-05-16T06:13:41.036Z,99672.84
2023-05-16T06:16:27.651Z,99665.38
2023-05-16T06:19:16.389Z,99667.47
2023-05-16T06:22:02.913Z,99646.50
2023-05-16T06:24:49.285Z,99676.31
2023-05-16T06:27:35.773Z,99686.31
2023-05-16T06:30:22.627Z,99673.78
2023-05-16T06:33:09.379Z,99686.59
2023-05-16T06:35:56.281Z,99712.22
2023-05-16T06:38:42.419Z,99726.13
2023-05-16T06:41:29.341Z,99743.25
2023-05-16T06:44:16.074Z,99738.94
2023-05-16T06:47:03.584Z,99740.63
2023-05-16T06:49:52.230Z,99735.97
2023-05-16T06:52:42.579Z,99758.97
2023-05-16T06:55:29.162Z,99747.03
2023-05-16T06:58:16.450Z,99761.81
2023-05-16T07:01:02.794Z,99767.97
2023-05-16T07:03:49.721Z,99756.22
2023-05-16T07:06:36.906Z,99720.06
2023-05-16T07:09:24.042Z,99781.00
2023-05-16T07:12:21.688Z,99772.97
2023-05-16T07:15:09.209Z,99784.31
2023-05-16T07:17:58.892Z,99760.41
2023-05-16T07:20:46.291Z,99776.72
2023-05-16T07:23:32.890Z,99782.41
2023-05-16T07:26:23.427Z,99777.78
2023-05-16T07:29:09.893Z,99777.59
2023-05-16T07:31:59.018Z,99757.81
2023-05-16T07:34:45.231Z,99758.38
2023-05-16T07:37:32.071Z,99767.66
2023-05-16T07:40:18.887Z,99767.34
2023-05-16T07:43:06.071Z,99767.88
2023-05-16T07:45:53.336Z,99770.19
2023-05-16T07:48:40.920Z,99771.13
2023-05-16T07:51:27.440Z,99764.41
2023-05-16T07:54:15.830Z,99776.00
2023-05-16T07:57:02.845Z,99771.66
2023-05-16T07:59:52.483Z,99776.63
2023-05-16T08:02:39.680Z,99773.94
2023-05-16T08:05:26.856Z,99741.53
2023-05-16T08:08:15.752Z,99790.28
2023-05-16T08:11:02.868Z,99781.63
2023-05-16T08:13:50.320Z,99769.75
2023-05-16T08:16:37.107Z,99765.59
2023-05-16T08:19:23.790Z,99755.94
2023-05-16T08:22:10.975Z,99791.13
2023-05-16T08:24:58.106Z,99775.09
2023-05-16T08:27:49.613Z,99759.94
2023-05-16T08:30:36.181Z,99788.34
2023-05-16T08:33:22.930Z,99802.72
2023-05-16T08:36:10.226Z,99805.91
2023-05-16T08:38:57.080Z,99807.16
2023-05-16T08:41:45.914Z,99811.94
2023-05-16T08:44:32.811Z,99801.00
2023-05-16T08:47:23.787Z,99817.75
2023-05-16T08:50:11.845Z,99821.28
2023-05-16T08:52:58.656Z,99827.09
2023-05-16T08:55:48.715Z,99817.91
2023-05-16T08:58:37.519Z,99829.94
2023-05-16T09:01:24.365Z,99822.50
2023-05-16T09:04:11.141Z,99825.78
2023-05-16T09:06:57.796Z,99827.94
2023-05-16T09:09:44.865Z,99841.44
2023-05-16T09:12:32.743Z,99819.63
2023-05-16T09:15:19.753Z,99853.16
2023-05-16T09:18:22.478Z,99847.28
2023-05-16T09:21:10.810Z,99841.47
2023-05-16T09:23:58.222Z,99837.09
2023-05-16T09:26:45.094Z,99848.94
2023-05-16T09:29:32.231Z,99846.84
2023-05-16T09:32:18.866Z,99859.94
2023-05-16T09:35:09.287Z,99852.38
2023-05-16T09:37:58.474Z,99854.53
2023-05-16T09:40:46.763Z,99860.56
2023-05-16T09:43:34.492Z,99806.50
2023-05-16T09:46:27.718Z,99871.28
2023-05-16T09:49:20.095Z,99859.22
2023-05-16T09:52:07.539Z,99855.13
2023-05-16T09:54:55.330Z,99846.53
2023-05-16T09:57:41.825Z,99870.03
2023-05-16T10:00:32.933Z,99878.72
2023-05-16T10:03:19.838Z,99881.06
2023-05-16T10:06:07.276Z,99858.16
2023-05-16T10:08:54.132Z,99842.13
2023-05-16T10:11:42.824Z,99877.41
2023-05-16T10:14:30.900Z,99876.41
2023-05-16T10:17:18.142Z,99850.94
2023-05-16T10:20:09.557Z,99893.97
2023-05-16T10:22:57.001Z,99880.59
2023-05-16T10:25:45.418Z,99893.22
2023-05-16T10:28:32.085Z,99881.84
2023-05-16T10:31:19.030Z,99877.63
2023-05-16T10:34:05.841Z,99908.50
2023-05-16T10:36:53.109Z,99884.91
2023-05-16T10:39:40.085Z,99910.72
2023-05-16T10:42:27.115Z,99895.50
2023-05-16T10:45:18.510Z,99925.38
2023-05-16T10:48:07.057Z,99904.47
2023-05-16T10:50:53.780Z,99937.66
2023-05-16T10:53:43.389Z,99940.00
2023-05-16T10:56:29.873Z,99911.06
2023-05-16T10:59:25.091Z,99940.88
2023-05-16T11:02:41.686Z,99945.22
2023-05-16T11:05:30.389Z,99908.69
2023-05-16T11:08:19.912Z,99885.38
2023-05-16T11:11:48.226Z,99946.25
2023-05-16T11:14:42.506Z,99931.78
2023-05-16T11:17:29.479Z,99924.84
2023-05-16T11:20:32.245Z,99913.47
2023-05-16T11:23:22.953Z,99932.06
2023-05-16T11:26:10.066Z,99935.88
2023-05-16T11:28:57.639Z,99942.22
2023-05-16T11:31:45.064Z,99941.44
2023-05-16T11:34:32.586Z,99951.41
2023-05-16T11:37:23.056Z,99943.22
2023-05-16T11:40:12.551Z,99897.09
2023-05-16T11:43:07.071Z,99920.69
2023-05-16T11:45:57.458Z,99957.31
2023-05-16T11:48:47.523Z,99954.59
2023-05-16T11:51:37.462Z,99955.53
2023-05-16T11:54:24.803Z,99950.94
2023-05-16T11:57:11.860Z,99958.34
2023-05-16T12:00:16.476Z,99942.34
2023-05-16T12:03:08.409Z,99960.25
2023-05-16T12:05:58.070Z,99950.97
2023-05-16T12:08:51.686Z,99959.97
2023-05-16T12:11:44.463Z,99954.69
2023-05-16T12:14:31.558Z,99969.16
2023-05-16T12:17:18.731Z,99979.41
2023-05-16T12:20:06.841Z,99969.75
2023-05-16T12:22:53.986Z,99977.13
2023-05-16T12:25:46.464Z,99965.72
2023-05-16T12:28:35.065Z,99921.41
2023-05-16T12:31:31.043Z,99964.19
2023-05-16T12:34:23.464Z,99916.31
2023-05-16T12:37:09.752Z,99966.44
2023-05-16T12:40:04.391Z,99972.72
2023-05-16T12:42:54.299Z,99966.97
2023-05-16T12:45:42.373Z,99977.97
2023-05-16T12:48:37.679Z,99967.69
2023-05-16T12:51:24.983Z,99969.66
2023-05-16T12:54:15.174Z,99975.19
2023-05-16T12:57:02.301Z,99945.00
2023-05-16T12:59:52.038Z,99982.94
2023-05-16T13:02:39.050Z,99971.31
2023-05-16T13:05:28.389Z,99978.47
2023-05-16T13:08:15.168Z,99982.41
2023-05-16T13:11:02.119Z,99984.31
2023-05-16T13:13:48.536Z,99946.53
2023-05-16T13:16:38.324Z,99960.78
2023-05-16T13:19:24.998Z,99988.78
2023-05-16T13:22:16.588Z,99996.94
2023-05-16T13:25:04.841Z,100004.97
2023-05-16T13:27:51.767Z,99956.53
2023-05-16T13:30:39.367Z,99997.75
2023-05-16T13:33:28.139Z,99998.69
2023-05-16T13:36:16.101Z,99999.78
2023-05-16T13:39:03.402Z,100001.41
2023-05-16T13:41:51.717Z,99996.88
2023-05-16T13:44:39.540Z,99994.38
2023-05-16T13:47:27.849Z,99948.22
2023-05-16T13:50:16.296Z,99981.41
2023-05-16T13:53:03.296Z,100010.00
2023-05-16T13:55:49.807Z,100010.00
2023-05-16T13:58:48.927Z,99983.44
2023-05-16T14:01:47.318Z,100012.13
2023-05-16T14:04:34.425Z,100008.63
2023-05-16T14:07:23.959Z,100005.25
2023-05-16T14:10:11.442Z,100013.28
2023-05-16T14:13:00.840Z,100016.34
2023-05-16T14:15:47.792Z,99978.06
2023-05-16T14:18:34.404Z,100022.41
2023-05-16T14:21:21.883Z,99993.91
2023-05-16T14:24:11.162Z,100022.34
2023-05-16T14:26:58.118Z,100007.53
2023-05-16T14:29:49.116Z,100016.72
2023-05-16T14:32:38.351Z,99959.44
2023-05-16T14:35:25.408Z,100001.19
2023-05-16T14:38:11.946Z,100012.59
2023-05-16T14:40:58.183Z,100017.41
2023-05-16T14:43:45.507Z,100023.09
2023-05-16T14:46:39.148Z,100018.13
2023-05-16T14:49:25.935Z,99968.28
2023-05-16T14:52:17.574Z,100029.50
2023-05-16T14:55:04.566Z,100010.78
2023-05-16T14:57:57.127Z,100042.09
2023-05-16T15:00:46.275Z,100032.84
2023-05-16T15:03:53.626Z,99981.66
2023-05-16T15:06:41.920Z,100047.25
2023-05-16T15:09:30.030Z,100048.31
2023-05-16T15:12:19.841Z,100023.63
2023-05-16T15:15:07.590Z,100042.50
2023-05-16T15:17:55.097Z,100046.88
2023-05-16T15:20:41.438Z,100041.34
2023-05-16T15:23:27.903Z,100019.53
2023-05-16T15:26:17.188Z,100043.09
2023-05-16T15:29:07.383Z,100057.22
2023-05-16T15:31:53.993Z,100046.59
2023-05-16T15:34:41.052Z,100071.88
2023-05-16T15:37:30.720Z,100070.19
2023-05-16T15:40:23.344Z,100066.06
2023-05-16T15:43:12.694Z,100054.38
2023-05-16T15:46:02.006Z,100005.69
2023-05-16T15:48:48.522Z,100062.75
2023-05-16T15:51:38.470Z,100058.53
2023-05-16T15:54:24.991Z,100010.91
2023-05-16T15:57:11.964Z,100069.09
2023-05-16T15:59:58.400Z,100067.09
2023-05-16T16:02:46.353Z,100065.41
2023-05-16T16:05:33.557Z,100074.16
2023-05-16T16:08:21.225Z,100058.34
2023-05-16T16:11:12.892Z,100073.97
2023-05-16T16:14:02.679Z,100060.75
2023-05-16T16:16:49.239Z,100065.28
2023-05-16T16:19:35.927Z,100049.19
2023-05-16T16:22:22.707Z,100026.94
2023-05-16T16:25:09.987Z,100073.81
2023-05-16T16:27:57.138Z,100037.91
2023-05-16T16:30:44.877Z,100047.09
2023-05-16T16:33:31.587Z,100079.72
2023-05-16T16:36:18.985Z,100086.22
2023-05-16T16:39:08.823Z,100081.63
2023-05-16T16:41:56.895Z,100084.84
2023-05-16T16:44:42.988Z,100086.97
2023-05-16T16:47:30.059Z,100094.44
2023-05-16T16:50:16.559Z,100041.84
2023-05-16T16:53:04.639Z,100082.47
2023-05-16T16:55:51.244Z,100102.84
2023-05-16T16:58:38.172Z,100115.41
2023-05-16T17:01:27.067Z,100107.25
2023-05-16T17:04:14.959Z,100114.72
2023-05-16T17:07:03.937Z,100126.16
2023-05-16T17:09:50.998Z,100114.38
2023-05-16T17:12:47.191Z,100126.94
2023-05-16T17:15:35.127Z,100126.94
2023-05-16T17:18:21.994Z,100134.78
2023-05-16T17:21:09.557Z,100134.66
2023-05-16T17:23:59.383Z,100137.66
2023-05-16T17:26:48.878Z,100139.03
2023-05-16T17:29:35.716Z,100103.25
2023-05-16T17:32:22.487Z,100146.19
2023-05-16T17:35:09.941Z,100148.81
2023-05-16T17:37:56.996Z,100154.13
2023-05-16T17:40:44.213Z,100155.72
2023-05-16T17:43:31.699Z,100089.69
2023-05-16T17:46:18.773Z,100149.28
2023-05-16T17:49:09.897Z,100166.91
2023-05-16T17:51:58.473Z,100136.72
2023-05-16T17:54:48.402Z,100132.47
2023-05-16T17:57:38.927Z,100166.78
2023-05-16T18:00:28.466Z,100173.13
2023-05-16T18:03:16.002Z,100171.63
2023-05-16T18:06:03.509Z,100122.69
2023-05-16T18:08:51.082Z,100170.81
2023-05-16T18:11:40.752Z,100131.84
2023-05-16T18:14:27.466Z,100127.94
2023-05-16T18:17:14.983Z,100183.78
2023-05-16T18:20:09.825Z,100185.31
2023-05-16T18:22:57.671Z,100187.09
2023-05-16T18:25:44.718Z,100192.06
2023-05-16T18:28:31.781Z,100196.19
2023-05-16T18:31:18.901Z,100189.81
2023-05-16T18:34:05.728Z,100181.16
2023-05-16T18:36:52.795Z,100207.66
2023-05-16T18:39:41.705Z,100196.47
2023-05-16T18:42:28.441Z,100207.78
2023-05-16T18:45:15.460Z,100211.56
2023-05-16T18:48:02.481Z,100209.34
2023-05-16T18:50:49.470Z,100181.22
2023-05-16T18:53:39.158Z,100206.13
2023-05-16T18:56:27.353Z,100225.94
2023-05-16T18:59:14.359Z,100229.16
2023-05-16T19:02:02.883Z,100216.47
2023-05-16T19:04:49.896Z,100237.59
2023-05-16T19:07:37.997Z,100197.41
2023-05-16T19:10:26.020Z,100234.81
2023-05-16T19:13:12.733Z,100230.31
2023-05-16T19:15:59.031Z,100183.38
2023-05-16T19:18:47.009Z,100183.09
2023-05-16T19:21:34.048Z,100246.19
2023-05-16T19:24:20.961Z,100202.28
2023-05-16T19:27:09.477Z,100228.13
2023-05-16T19:29:56.617Z,100192.88
2023-05-16T19:32:43.311Z,100225.66
2023-05-16T19:35:30.678Z,100230.81
2023-05-16T19:38:22.499Z,100233.09
2023-05-16T19:41:09.002Z,100256.97
2023-05-16T19:43:55.678Z,100259.63
2023-05-16T19:46:42.685Z,100255.25
2023-05-16T19:49:34.294Z,100260.47
2023-05-16T19:52:21.356Z,100261.88
2023-05-16T19:55:09.146Z,100233.75
2023-05-16T19:57:59.247Z,100217.88
2023-05-16T20:00:47.518Z,100198.19
2023-05-16T20:03:34.414Z,100257.09
2023-05-16T20:06:21.357Z,100255.25
2023-05-16T20:09:10.030Z,100242.69
2023-05-16T20:11:58.030Z,100209.34
2023-05-16T20:14:45.010Z,100253.19
2023-05-16T20:17:31.745Z,100262.41
2023-05-16T20:20:18.435Z,100261.56
2023-05-16T20:23:05.245Z,100254.88
2023-05-16T20:25:52.148Z,100261.19
2023-05-16T20:28:38.718Z,100257.63
2023-05-16T20:31:25.981Z,100255.66
2023-05-16T20:34:12.617Z,100256.09
2023-05-16T20:37:00.569Z,100219.13
2023-05-16T20:39:47.308Z,100264.41
2023-05-16T20:42:36.823Z,100262.47
2023-05-16T20:45:24.151Z,100228.44
2023-05-16T20:48:11.189Z,100267.84
2023-05-16T20:50:58.082Z,100241.25
2023-05-16T20:53:47.129Z,100275.81
2023-05-16T20:56:36.778Z,100277.06
2023-05-16T20:59:25.007Z,100279.97
2023-05-16T21:02:13.534Z,100276.28
2023-05-16T21:05:14.497Z,100266.38
2023-05-16T21:08:06.838Z,100265.66
2023-05-16T21:10:55.937Z,100267.03
2023-05-16T21:13:43.418Z,100259.47
2023-05-16T21:16:31.521Z,100219.38
2023-05-16T21:19:18.111Z,100266.19
2023-05-16T21:22:06.405Z,100291.91
2023-05-16T21:24:53.288Z,100295.13
2023-05-16T21:27:40.868Z,100287.31
2023-05-16T21:30:30.233Z,100289.47
2023-05-16T21:33:20.811Z,100290.41
2023-05-16T21:36:07.463Z,100290.09
2023-05-16T21:38:56.732Z,100290.97
2023-05-16T21:41:43.557Z,100295.81
2023-05-16T21:44:31.937Z,100302.94
2023-05-16T21:47:18.309Z,100297.06
2023-05-16T21:50:06.529Z,100280.94
2023-05-16T21:52:53.194Z,100237.81
2023-05-16T21:55:42.052Z,100309.25
2023-05-16T21:58:28.877Z,100304.09
2023-05-16T22:01:16.815Z,100303.22
2023-05-16T22:04:06.791Z,100304.03
2023-05-16T22:06:53.792Z,100273.97
2023-05-16T22:09:41.624Z,100293.13
2023-05-16T22:12:28.711Z,100299.94
2023-05-16T22:15:17.179Z,100301.63
2023-05-16T22:18:04.325Z,100272.19
2023-05-16T22:20:50.942Z,100315.66
2023-05-16T22:23:38.199Z,100303.38
2023-05-16T22:26:24.821Z,100302.63
2023-05-16T22:29:12.056Z,100305.19
2023-05-16T22:31:58.581Z,100295.75
2023-05-16T22:34:45.486Z,100246.81
2023-05-16T22:37:33.382Z,100281.09
2023-05-16T22:40:23.331Z,100307.38
2023-05-16T22:43:09.804Z,100292.41
2023-05-16T22:45:56.688Z,100291.59
2023-05-16T22:48:43.473Z,100302.91
2023-05-16T22:51:31.588Z,100296.91
2023-05-16T22:54:20.485Z,100294.47
2023-05-16T22:57:07.193Z,100302.91
2023-05-16T22:59:54.128Z,100307.38
2023-05-16T23:02:41.035Z,100248.63
2023-05-16T23:05:28.430Z,100307.47
2023-05-16T23:08:15.595Z,100313.59
2023-05-16T23:11:02.414Z,100303.22
2023-05-16T23:13:49.003Z,100301.97
2023-05-16T23:16:38.767Z,100313.59
2023-05-16T23:19:26.059Z,100292.81
2023-05-16T23:22:12.735Z,100318.38
2023-05-16T23:25:01.795Z,100328.28
2023-05-16T23:27:48.416Z,100306.13
2023-05-16T23:30:35.272Z,100276.69
2023-05-16T23:33:22.072Z,100305.72
2023-05-16T23:36:12.196Z,100308.47
2023-05-16T23:38:58.500Z,100298.31
2023-05-16T23:41:52.905Z,100258.41
2023-05-16T23:44:42.028Z,100319.78
2023-05-16T23:47:29.017Z,100302.16
2023-05-16T23:50:21.054Z,100314.94
2023-05-16T23:53:08.017Z,100286.53
2023-05-16T23:55:54.570Z,100259.66
2023-05-16T23:58:41.647Z,100305.13
